Time;durP1;ratioP1;P1;durP2;ratioP2;P2;SDS_P1;SDS_P2;PMS_P1;PMS_P2;Temp;Humidity;BMP_temperature;BMP_pressure;BME280_temperature;BME280_humidity;BME280_pressure;Samples;Min_cycle;Max_cycle;Signal;HPM_P1;HPM_P2
2022/03/11 00:00:04;;;;;;;;;;;-2.40;90.30;;;;;;5100117;28;20346;-79
2022/03/11 00:02:30;;;;;;;;;;;-2.50;90.30;;;;;;5081895;28;20158;-79
2022/03/11 00:04:57;;;;;;;;;;;-2.30;90.60;;;;;;5100297;28;19907;-79
2022/03/11 00:07:22;;;;;;;;;;;-4.60;90.10;;;;;;5100057;27;19924;-79
2022/03/11 00:09:50;;;;;;;;;;;-2.70;91.10;;;;;;5101011;28;19908;-79
2022/03/11 00:12:15;;;;;;;;;;;-2.90;91.40;;;;;;5082427;28;19965;-79
2022/03/11 00:14:41;;;;;;;;;;;-1.50;91.60;;;;;;5100124;28;20565;-79
2022/03/11 00:17:07;;;;;;;;;;;-2.20;91.20;;;;;;5102775;28;19907;-79
2022/03/11 00:19:33;;;;;;;;;;;-3.10;91.40;;;;;;5103832;28;19914;-79
2022/03/11 00:21:59;;;;;;;;;;;-2.80;91.80;;;;;;5103879;28;19908;-79
2022/03/11 00:24:24;;;;;;;;;;;-3.20;91.60;;;;;;5103595;28;19908;-79
2022/03/11 00:26:50;;;;;;;;;;;-2.90;91.50;;;;;;5085969;28;19912;-78
2022/03/11 00:29:16;;;;;;;;;;;-3.30;91.40;;;;;;5105000;28;19908;-79
2022/03/11 00:31:41;;;;;;;;;;;-3.30;91.60;;;;;;5084951;28;19957;-79
2022/03/11 00:34:07;;;;;;;;;;;-2.90;92.00;;;;;;5104339;28;19924;-79
2022/03/11 00:36:33;;;;;;;;;;;-3.50;92.10;;;;;;5086346;27;19912;-79
2022/03/11 00:38:58;;;;;;;;;;;-3.60;92.50;;;;;;5105317;28;19904;-78
2022/03/11 00:41:24;;;;;;;;;;;-3.40;92.30;;;;;;5105980;28;19908;-79
2022/03/11 00:43:49;;;;;;;;;;;-3.10;92.60;;;;;;5104653;28;20145;-79
2022/03/11 00:46:15;;;;;;;;;;;-3.70;92.80;;;;;;5103615;28;20027;-79
2022/03/11 00:48:40;;;;;;;;;;;-1.50;93.50;;;;;;5104362;28;20101;-79
2022/03/11 00:51:06;;;;;;;;;;;-3.80;93.30;;;;;;5104344;28;19908;-78
2022/03/11 00:53:31;;;;;;;;;;;-3.80;93.60;;;;;;5103954;28;20418;-79
2022/03/11 00:55:57;;;;;;;;;;;-3.70;93.20;;;;;;5085744;28;20435;-78
2022/03/11 00:58:22;;;;;;;;;;;-3.90;93.30;;;;;;5105197;28;19908;-78
2022/03/11 01:00:48;;;;;;;;;;;-3.30;93.80;;;;;;5107383;28;19908;-78
2022/03/11 01:03:13;;;;;;;;;;;-3.90;93.50;;;;;;5087134;28;19914;-78
2022/03/11 01:05:39;;;;;;;;;;;-4.00;93.30;;;;;;5115562;28;20237;-79
2022/03/11 01:08:05;;;;;;;;;;;-1.90;93.70;;;;;;5119060;28;19916;-79
2022/03/11 01:10:31;;;;;;;;;;;-4.10;92.80;;;;;;5116621;28;19939;-79
2022/03/11 01:12:56;;;;;;;;;;;-4.00;93.70;;;;;;5095809;28;20117;-79
2022/03/11 01:15:22;;;;;;;;;;;-4.00;93.70;;;;;;5107233;28;19931;-79
2022/03/11 01:17:47;;;;;;;;;;;-4.20;93.50;;;;;;5105031;28;19923;-78
2022/03/11 01:20:13;;;;;;;;;;;-3.50;94.20;;;;;;5104682;28;19908;-78
2022/03/11 01:22:39;;;;;;;;;;;-3.60;93.50;;;;;;5103804;28;20195;-78
2022/03/11 01:25:06;;;;;;;;;;;-2.90;93.70;;;;;;5086572;28;19908;-79
2022/03/11 01:27:32;;;;;;;;;;;-4.30;92.60;;;;;;5103577;28;19915;-79
2022/03/11 01:29:57;;;;;;;;;;;-4.40;92.70;;;;;;5103342;28;20120;-78
2022/03/11 01:32:23;;;;;;;;;;;-3.70;93.40;;;;;;5103413;28;20096;-78
2022/03/11 01:34:48;;;;;;;;;;;-4.50;93.40;;;;;;5103336;28;19947;-78
2022/03/11 01:37:14;;;;;;;;;;;-4.50;93.40;;;;;;5102969;28;19958;-79
2022/03/11 01:39:39;;;;;;;;;;;-1.60;94.60;;;;;;5084960;28;20025;-78
2022/03/11 01:42:06;;;;;;;;;;;-4.00;94.10;;;;;;5104472;28;19908;-78
2022/03/11 01:44:31;;;;;;;;;;;-4.70;93.50;;;;;;5085095;28;20208;-78
2022/03/11 01:46:57;;;;;;;;;;;-4.70;93.90;;;;;;5103221;28;20109;-79
2022/03/11 01:49:22;;;;;;;;;;;-3.30;94.40;;;;;;5110743;28;20006;-79
2022/03/11 01:51:48;;;;;;;;;;;-4.90;94.20;;;;;;5106163;28;20443;-78
2022/03/11 01:54:14;;;;;;;;;;;-4.30;94.60;;;;;;5101821;28;19916;-78
2022/03/11 01:56:39;;;;;;;;;;;-5.30;94.40;;;;;;5083822;28;19908;-78
2022/03/11 01:59:06;;;;;;;;;;;-4.50;94.70;;;;;;5102137;28;19908;-78
2022/03/11 02:01:32;;;;;;;;;;;-5.00;94.90;;;;;;5101440;28;19941;-78
2022/03/11 02:03:57;;;;;;;;;;;-3.60;94.90;;;;;;5101623;28;20352;-79
2022/03/11 02:06:23;;;;;;;;;;;-2.60;95.20;;;;;;5101526;28;20001;-78
2022/03/11 02:08:50;;;;;;;;;;;-5.10;94.50;;;;;;5083074;28;19923;-78
2022/03/11 02:11:15;;;;;;;;;;;-4.00;94.90;;;;;;5101152;28;19919;-78
2022/03/11 02:13:41;;;;;;;;;;;-4.90;94.30;;;;;;5101439;28;19960;-79
2022/03/11 02:16:07;;;;;;;;;;;-4.90;94.30;;;;;;5101353;28;19920;-78
2022/03/11 02:18:32;;;;;;;;;;;-4.90;94.30;;;;;;5101093;28;20191;-78
2022/03/11 02:20:58;;;;;;;;;;;-5.00;94.20;;;;;;5101508;28;19968;-78
2022/03/11 02:23:24;;;;;;;;;;;-5.00;94.40;;;;;;5101245;28;19911;-78
2022/03/11 02:25:50;;;;;;;;;;;-3.40;94.60;;;;;;5082579;28;19991;-78
2022/03/11 02:28:16;;;;;;;;;;;-5.10;94.20;;;;;;5101182;28;20025;-79
2022/03/11 02:30:41;;;;;;;;;;;-5.10;94.10;;;;;;5101366;28;19919;-78
2022/03/11 02:33:07;;;;;;;;;;;-5.20;94.20;;;;;;5082400;28;20006;-79
2022/03/11 02:35:32;;;;;;;;;;;-5.20;94.10;;;;;;5101602;28;19920;-78
2022/03/11 02:37:58;;;;;;;;;;;-4.40;94.30;;;;;;5101104;28;19912;-78
2022/03/11 02:40:24;;;;;;;;;;;-5.30;94.20;;;;;;5100878;28;19923;-79
2022/03/11 02:42:49;;;;;;;;;;;-4.30;94.50;;;;;;5082738;28;19978;-79
2022/03/11 02:45:15;;;;;;;;;;;-4.30;94.20;;;;;;5101245;28;19914;-78
2022/03/11 02:47:40;;;;;;;;;;;-2.90;94.70;;;;;;5100998;28;19926;-78
2022/03/11 02:50:06;;;;;;;;;;;-3.00;95.10;;;;;;5101376;28;20256;-78
2022/03/11 02:52:31;;;;;;;;;;;-5.40;94.10;;;;;;5100616;28;20003;-78
2022/03/11 02:54:57;;;;;;;;;;;-5.50;94.10;;;;;;5100575;28;19927;-79
2022/03/11 02:57:23;;;;;;;;;;;-5.50;94.30;;;;;;5100747;28;19915;-79
2022/03/11 02:59:48;;;;;;;;;;;-5.40;94.40;;;;;;5100877;28;19916;-78
2022/03/11 03:02:14;;;;;;;;;;;-5.40;94.20;;;;;;5082723;28;20451;-78
2022/03/11 03:04:39;;;;;;;;;;;-5.60;94.20;;;;;;5101025;28;19908;-78
2022/03/11 03:07:07;;;;;;;;;;;-5.70;94.10;;;;;;5100814;28;20170;-79
2022/03/11 03:09:32;;;;;;;;;;;-5.70;94.50;;;;;;5100668;28;19908;-78
2022/03/11 03:11:58;;;;;;;;;;;-5.80;94.70;;;;;;5100674;28;20406;-78
2022/03/11 03:14:24;;;;;;;;;;;-5.70;94.60;;;;;;5100686;28;19915;-79
2022/03/11 03:16:49;;;;;;;;;;;-3.20;94.90;;;;;;5082013;28;20022;-78
2022/03/11 03:19:15;;;;;;;;;;;-4.20;94.90;;;;;;5100286;28;20410;-79
2022/03/11 03:21:40;;;;;;;;;;;-5.60;94.30;;;;;;5100489;28;20190;-78
2022/03/11 03:24:06;;;;;;;;;;;-5.80;94.50;;;;;;5102906;28;19908;-78
2022/03/11 03:26:32;;;;;;;;;;;-5.90;94.60;;;;;;5089033;28;19907;-78
2022/03/11 03:28:57;;;;;;;;;;;-5.90;94.50;;;;;;5106949;28;20035;-79
2022/03/11 03:31:23;;;;;;;;;;;-5.90;94.60;;;;;;5106340;28;19912;-79
2022/03/11 03:33:49;;;;;;;;;;;-5.20;95.00;;;;;;5108074;28;19915;-78
2022/03/11 03:36:15;;;;;;;;;;;-6.00;95.00;;;;;;5103720;28;19917;-78
2022/03/11 03:38:40;;;;;;;;;;;-6.00;94.70;;;;;;5101182;28;20417;-79
2022/03/11 03:41:06;;;;;;;;;;;-6.10;94.80;;;;;;5083772;28;19908;-79
2022/03/11 03:43:31;;;;;;;;;;;-6.20;95.00;;;;;;5104616;28;20601;-78
2022/03/11 03:45:57;;;;;;;;;;;-6.20;94.80;;;;;;5108399;28;19928;-79
2022/03/11 03:48:23;;;;;;;;;;;-6.30;94.80;;;;;;5101541;28;20271;-79
2022/03/11 03:50:48;;;;;;;;;;;-5.80;95.20;;;;;;5100248;28;20211;-78
2022/03/11 03:53:14;;;;;;;;;;;-6.20;95.00;;;;;;5081938;28;19912;-78
2022/03/11 03:55:40;;;;;;;;;;;-4.00;95.10;;;;;;5100329;28;19916;-78
2022/03/11 03:58:05;;;;;;;;;;;-6.20;94.60;;;;;;5082441;28;19907;-78
2022/03/11 04:00:31;;;;;;;;;;;-6.30;94.90;;;;;;5103661;28;20558;-79
2022/03/11 04:02:56;;;;;;;;;;;-4.30;95.40;;;;;;5107623;28;19950;-78
2022/03/11 04:05:22;;;;;;;;;;;-6.40;94.80;;;;;;5100011;28;19933;-78
2022/03/11 04:07:48;;;;;;;;;;;-6.40;94.80;;;;;;5081665;28;19931;-78
2022/03/11 04:10:14;;;;;;;;;;;-6.50;94.70;;;;;;5100051;28;20386;-78
2022/03/11 04:12:40;;;;;;;;;;;-6.50;94.50;;;;;;5100197;28;19918;-79
2022/03/11 04:15:06;;;;;;;;;;;-5.60;94.70;;;;;;5081733;28;19916;-78
2022/03/11 04:17:32;;;;;;;;;;;-6.50;94.70;;;;;;5100416;28;20402;-80
2022/03/11 04:19:59;;;;;;;;;;;-4.40;95.40;;;;;;5104879;28;19915;-78
2022/03/11 04:22:25;;;;;;;;;;;-6.40;94.50;;;;;;5108452;28;19918;-78
2022/03/11 04:24:51;;;;;;;;;;;-6.50;94.60;;;;;;5108153;28;19908;-79
2022/03/11 04:27:17;;;;;;;;;;;-6.50;94.30;;;;;;5107055;28;20172;-79
2022/03/11 04:29:42;;;;;;;;;;;-6.60;94.40;;;;;;5108313;28;19965;-79
2022/03/11 04:32:08;;;;;;;;;;;-5.90;94.80;;;;;;5107410;28;19939;-78
2022/03/11 04:34:34;;;;;;;;;;;-6.60;94.90;;;;;;5081660;28;20006;-78
2022/03/11 04:36:59;;;;;;;;;;;-6.70;94.70;;;;;;5100042;28;20011;-78
2022/03/11 04:39:26;;;;;;;;;;;-4.80;95.20;;;;;;5099454;28;20336;-78
2022/03/11 04:41:53;;;;;;;;;;;-6.90;94.50;;;;;;5098749;28;19908;-78
2022/03/11 04:44:18;;;;;;;;;;;-6.90;94.70;;;;;;5098525;28;19930;-78
2022/03/11 04:46:44;;;;;;;;;;;-6.90;94.60;;;;;;5098458;28;19920;-78
2022/03/11 04:49:10;;;;;;;;;;;-6.90;94.90;;;;;;5098402;28;20154;-78
2022/03/11 04:51:36;;;;;;;;;;;-6.90;94.80;;;;;;5098452;28;19908;-78
2022/03/11 04:54:02;;;;;;;;;;;-5.70;94.90;;;;;;5098179;28;19966;-78
2022/03/11 04:56:27;;;;;;;;;;;-7.00;94.90;;;;;;5098236;28;20077;-78
2022/03/11 04:58:53;;;;;;;;;;;-6.60;94.70;;;;;;5098347;28;19994;-79
2022/03/11 05:01:18;;;;;;;;;;;-6.90;94.90;;;;;;5098483;28;19907;-78
2022/03/11 05:03:44;;;;;;;;;;;-7.00;95.00;;;;;;5102349;28;19907;-78
2022/03/11 05:06:10;;;;;;;;;;;-7.20;94.90;;;;;;5084630;28;19907;-79
2022/03/11 05:08:36;;;;;;;;;;;-5.70;95.20;;;;;;5103349;28;20002;-79
2022/03/11 05:11:02;;;;;;;;;;;-4.90;95.30;;;;;;5103208;28;19908;-78
2022/03/11 05:13:27;;;;;;;;;;;-6.40;94.90;;;;;;5102272;28;19934;-78
2022/03/11 05:15:53;;;;;;;;;;;-7.20;94.70;;;;;;5102023;28;20076;-78
2022/03/11 05:18:18;;;;;;;;;;;-6.30;94.90;;;;;;5102088;28;20143;-78
2022/03/11 05:20:44;;;;;;;;;;;-7.20;94.60;;;;;;5102274;28;19943;-78
2022/03/11 05:23:10;;;;;;;;;;;-7.30;94.60;;;;;;5083839;28;19907;-78
2022/03/11 05:25:36;;;;;;;;;;;-7.30;94.80;;;;;;5102047;28;19973;-79
2022/03/11 05:28:02;;;;;;;;;;;-7.30;94.60;;;;;;5101605;28;19912;-78
2022/03/11 05:30:28;;;;;;;;;;;-7.20;94.90;;;;;;5101640;28;19912;-79
2022/03/11 05:32:53;;;;;;;;;;;-7.10;94.60;;;;;;5101323;28;20218;-79
2022/03/11 05:35:19;;;;;;;;;;;-7.20;94.70;;;;;;5082747;28;19969;-78
2022/03/11 05:37:46;;;;;;;;;;;-7.30;94.70;;;;;;5101408;28;20242;-78
2022/03/11 05:40:11;;;;;;;;;;;-7.30;94.70;;;;;;5102106;28;19947;-79
2022/03/11 05:42:37;;;;;;;;;;;-7.20;94.80;;;;;;5083890;28;19958;-78
2022/03/11 05:45:03;;;;;;;;;;;-7.30;94.60;;;;;;5101538;28;19972;-79
2022/03/11 05:47:29;;;;;;;;;;;-7.30;94.50;;;;;;5101535;28;19928;-78
2022/03/11 05:49:54;;;;;;;;;;;-8.00;94.50;;;;;;5101935;28;20257;-78
2022/03/11 05:52:21;;;;;;;;;;;-7.30;94.60;;;;;;5101685;28;20457;-79
2022/03/11 05:54:46;;;;;;;;;;;-6.30;95.00;;;;;;5101613;28;19922;-79
2022/03/11 05:57:12;;;;;;;;;;;-6.10;95.10;;;;;;5101441;28;20351;-78
2022/03/11 05:59:37;;;;;;;;;;;-5.50;95.20;;;;;;5102254;28;19912;-78
2022/03/11 06:02:03;;;;;;;;;;;-5.30;94.80;;;;;;5102009;28;19965;-78
2022/03/11 06:04:29;;;;;;;;;;;-7.00;94.00;;;;;;5102099;28;20332;-78
2022/03/11 06:06:54;;;;;;;;;;;-5.70;94.30;;;;;;5101657;28;20014;-79
2022/03/11 06:09:20;;;;;;;;;;;-5.00;94.40;;;;;;5101741;28;20512;-79
2022/03/11 06:11:45;;;;;;;;;;;-7.10;93.90;;;;;;5101938;28;19934;-79
2022/03/11 06:14:11;;;;;;;;;;;-7.10;93.90;;;;;;5106761;28;19918;-79
2022/03/11 06:16:37;;;;;;;;;;;-7.00;93.90;;;;;;5108787;28;19908;-80
2022/03/11 06:19:03;;;;;;;;;;;-5.10;94.20;;;;;;5101634;28;19918;-78
2022/03/11 06:21:28;;;;;;;;;;;-6.80;93.50;;;;;;5101575;28;19954;-78
2022/03/11 06:23:54;;;;;;;;;;;-6.70;93.30;;;;;;5083031;28;19956;-78
2022/03/11 06:26:20;;;;;;;;;;;-6.70;93.10;;;;;;5101051;28;19908;-78
2022/03/11 06:28:45;;;;;;;;;;;-6.60;93.00;;;;;;5101516;28;20310;-78
2022/03/11 06:31:11;;;;;;;;;;;-6.50;93.20;;;;;;5101266;28;20153;-79
2022/03/11 06:33:40;;;;;;;;;;;-6.20;93.30;;;;;;5101833;28;20122;-78
2022/03/11 06:36:07;;;;;;;;;;;-6.40;93.10;;;;;;5082399;28;20198;-78
2022/03/11 06:38:33;;;;;;;;;;;-6.30;92.90;;;;;;5101146;28;19999;-79
2022/03/11 06:40:58;;;;;;;;;;;-4.60;93.00;;;;;;5101230;28;19923;-79
2022/03/11 06:43:24;;;;;;;;;;;-6.00;92.40;;;;;;5101679;28;19914;-78
2022/03/11 06:45:50;;;;;;;;;;;-5.90;92.60;;;;;;5101253;28;19920;-78
2022/03/11 06:48:18;;;;;;;;;;;-5.90;92.30;;;;;;5100615;28;19916;-78
2022/03/11 06:50:44;;;;;;;;;;;-5.80;92.50;;;;;;5083258;28;19915;-78
2022/03/11 06:53:09;;;;;;;;;;;-3.30;92.80;;;;;;5100829;28;19916;-78
2022/03/11 06:55:35;;;;;;;;;;;-5.50;91.90;;;;;;5101208;28;19920;-79
2022/03/11 06:58:00;;;;;;;;;;;-5.40;91.60;;;;;;5101097;28;20362;-78
2022/03/11 07:00:26;;;;;;;;;;;-3.40;91.80;;;;;;5101314;28;20326;-79
2022/03/11 07:02:51;;;;;;;;;;;-4.90;91.10;;;;;;5101106;28;19908;-79
2022/03/11 07:05:17;;;;;;;;;;;-4.20;91.40;;;;;;5101526;28;20065;-78
2022/03/11 07:07:43;;;;;;;;;;;-4.80;90.90;;;;;;5101163;28;20414;-79
2022/03/11 07:10:12;;;;;;;;;;;-4.60;90.70;;;;;;5101134;28;20011;-79
2022/03/11 07:12:38;;;;;;;;;;;-4.50;90.60;;;;;;5100761;28;19912;-78
2022/03/11 07:15:05;;;;;;;;;;;-3.80;90.40;;;;;;5101217;28;19922;-79
2022/03/11 07:17:31;;;;;;;;;;;-4.10;90.10;;;;;;5100991;28;20176;-78
2022/03/11 07:19:57;;;;;;;;;;;-3.10;90.00;;;;;;5100851;28;20027;-79
2022/03/11 07:22:23;;;;;;;;;;;-3.60;88.50;;;;;;5100770;28;19932;-78
2022/03/11 07:24:48;;;;;;;;;;;-3.70;88.00;;;;;;5100796;28;19947;-79
2022/03/11 07:27:15;;;;;;;;;;;-3.50;87.60;;;;;;5082479;28;20265;-79
2022/03/11 07:29:41;;;;;;;;;;;-3.30;87.00;;;;;;5083347;28;20368;-79
2022/03/11 07:32:08;;;;;;;;;;;-3.10;86.70;;;;;;5101820;28;19907;-79
2022/03/11 07:34:34;;;;;;;;;;;-3.10;86.00;;;;;;5102547;28;19916;-78
2022/03/11 07:36:59;;;;;;;;;;;-3.00;85.60;;;;;;5106472;28;19908;-78
2022/03/11 07:39:25;;;;;;;;;;;-1.70;85.30;;;;;;5089537;28;20041;-78
2022/03/11 07:41:50;;;;;;;;;;;-2.60;85.30;;;;;;5108811;28;19908;-78
2022/03/11 07:44:16;;;;;;;;;;;-2.50;84.30;;;;;;5109174;28;20406;-78
2022/03/11 07:46:42;;;;;;;;;;;-2.30;83.30;;;;;;5081400;28;20402;-78
2022/03/11 07:49:09;;;;;;;;;;;-2.10;82.50;;;;;;5081032;28;20021;-77
2022/03/11 07:51:35;;;;;;;;;;;-1.60;81.50;;;;;;5080501;28;20158;-78
2022/03/11 07:54:00;;;;;;;;;;;-1.20;80.50;;;;;;5080236;28;20453;-78
2022/03/11 07:56:26;;;;;;;;;;;-1.50;79.30;;;;;;5079305;28;19941;-79
2022/03/11 07:58:54;;;;;;;;;;;-1.50;78.40;;;;;;5079752;28;19907;-79
2022/03/11 08:01:20;;;;;;;;;;;-1.20;79.50;;;;;;5079246;28;19962;-79
2022/03/11 08:03:45;;;;;;;;;;;-1.10;78.20;;;;;;5079005;28;19955;-78
2022/03/11 08:06:11;;;;;;;;;;;-1.00;77.40;;;;;;5079629;28;19916;-78
2022/03/11 08:08:37;;;;;;;;;;;-0.80;76.20;;;;;;5077820;28;19923;-79
2022/03/11 08:11:03;;;;;;;;;;;-0.80;76.20;;;;;;5078569;28;20375;-79
2022/03/11 08:13:29;;;;;;;;;;;-0.80;74.90;;;;;;5078826;28;20025;-79
2022/03/11 08:15:55;;;;;;;;;;;-0.80;74.10;;;;;;5078735;28;20382;-78
2022/03/11 08:18:21;;;;;;;;;;;-0.20;74.30;;;;;;5079310;28;19908;-79
2022/03/11 08:20:47;;;;;;;;;;;-0.90;75.10;;;;;;5077720;28;19919;-79
2022/03/11 08:23:12;;;;;;;;;;;-0.10;75.90;;;;;;5079569;28;19908;-79
2022/03/11 08:25:38;;;;;;;;;;;-0.60;74.50;;;;;;5079754;28;20478;-78
2022/03/11 08:28:05;;;;;;;;;;;-0.40;75.70;;;;;;5082674;28;20097;-79
2022/03/11 08:30:31;;;;;;;;;;;-0.30;74.30;;;;;;5086731;28;19915;-78
2022/03/11 08:32:57;;;;;;;;;;;-0.10;74.10;;;;;;5080015;28;19908;-78
2022/03/11 08:35:23;;;;;;;;;;;0.00;71.30;;;;;;5077595;28;20208;-79
2022/03/11 08:37:49;;;;;;;;;;;0.20;72.00;;;;;;5079627;28;19997;-78
2022/03/11 08:40:15;;;;;;;;;;;0.30;74.60;;;;;;5082560;28;20424;-79
2022/03/11 08:42:41;;;;;;;;;;;0.40;71.90;;;;;;5081307;28;19908;-79
2022/03/11 08:45:08;;;;;;;;;;;1.00;70.80;;;;;;5082523;28;19943;-78
2022/03/11 08:47:33;;;;;;;;;;;0.80;68.60;;;;;;5101943;28;19920;-79
2022/03/11 08:49:59;;;;;;;;;;;1.00;68.80;;;;;;5103224;28;19935;-79
2022/03/11 08:52:25;;;;;;;;;;;1.20;69.80;;;;;;5103318;28;19907;-78
2022/03/11 08:54:51;;;;;;;;;;;1.50;69.10;;;;;;5103170;28;20135;-79
2022/03/11 08:57:16;;;;;;;;;;;1.40;67.20;;;;;;5103206;28;20558;-79
2022/03/11 08:59:42;;;;;;;;;;;1.90;65.90;;;;;;5103160;28;19907;-79
2022/03/11 09:02:08;;;;;;;;;;;1.50;63.70;;;;;;5103022;28;20354;-79
2022/03/11 09:04:34;;;;;;;;;;;1.50;63.60;;;;;;5102787;28;20176;-79
2022/03/11 09:07:00;;;;;;;;;;;1.50;62.60;;;;;;5103293;28;20362;-79
2022/03/11 09:09:25;;;;;;;;;;;1.70;61.60;;;;;;5102459;28;20414;-80
2022/03/11 09:11:51;;;;;;;;;;;1.60;60.50;;;;;;5102260;28;20097;-78
2022/03/11 09:14:18;;;;;;;;;;;1.60;60.00;;;;;;5101875;28;19907;-79
2022/03/11 09:16:43;;;;;;;;;;;1.70;61.90;;;;;;5102131;28;19907;-79
2022/03/11 09:19:09;;;;;;;;;;;1.80;61.90;;;;;;5102077;28;20006;-79
2022/03/11 09:21:35;;;;;;;;;;;1.50;58.70;;;;;;5101997;28;20394;-79
2022/03/11 09:24:00;;;;;;;;;;;1.40;59.20;;;;;;5102529;28;19915;-78
2022/03/11 09:26:26;;;;;;;;;;;1.20;57.10;;;;;;5102496;28;19915;-78
2022/03/11 09:28:51;;;;;;;;;;;1.40;56.80;;;;;;5103216;28;20069;-79
2022/03/11 09:31:17;;;;;;;;;;;1.60;59.90;;;;;;5108051;28;19968;-80
2022/03/11 09:33:42;;;;;;;;;;;1.80;60.40;;;;;;5089995;28;20066;-79
2022/03/11 09:36:08;;;;;;;;;;;2.10;58.10;;;;;;5107097;28;19920;-79
2022/03/11 09:38:36;;;;;;;;;;;2.30;57.20;;;;;;5085412;28;19912;-79
2022/03/11 09:41:02;;;;;;;;;;;2.50;55.00;;;;;;5084232;28;19939;-79
2022/03/11 09:43:28;;;;;;;;;;;2.80;53.20;;;;;;5102982;28;19940;-79
2022/03/11 09:45:53;;;;;;;;;;;3.20;51.80;;;;;;5102272;28;20398;-79
2022/03/11 09:48:20;;;;;;;;;;;3.40;52.80;;;;;;5083474;28;19915;-79
2022/03/11 09:50:45;;;;;;;;;;;3.50;49.70;;;;;;5083014;28;20226;-79
2022/03/11 09:53:11;;;;;;;;;;;3.60;47.60;;;;;;5083248;28;20002;-79
2022/03/11 09:55:38;;;;;;;;;;;5.40;51.40;;;;;;5102113;28;20314;-79
2022/03/11 09:58:05;;;;;;;;;;;4.20;52.30;;;;;;5083237;28;19915;-79
2022/03/11 10:00:30;;;;;;;;;;;4.50;50.40;;;;;;5083955;28;19912;-79
2022/03/11 10:02:56;;;;;;;;;;;4.90;51.70;;;;;;5101730;28;20085;-79
2022/03/11 10:05:22;;;;;;;;;;;5.20;51.40;;;;;;5083096;28;19908;-79
2022/03/11 10:08:00;;;;;;;;;;;5.50;50.60;;;;;;5101470;28;20130;-79
2022/03/11 10:10:26;;;;;;;;;;;5.50;44.10;;;;;;5101633;28;19923;-79
2022/03/11 10:12:53;;;;;;;;;;;5.50;43.80;;;;;;5101857;28;20222;-79
2022/03/11 10:15:26;;;;;;;;;;;5.50;44.10;;;;;;5101780;28;20424;-78
2022/03/11 10:17:52;;;;;;;;;;;5.70;44.10;;;;;;5101556;28;19907;-79
2022/03/11 10:20:17;;;;;;;;;;;5.80;46.20;;;;;;5082593;28;19987;-79
2022/03/11 10:22:46;;;;;;;;;;;5.90;46.50;;;;;;5083221;28;20318;-79
2022/03/11 10:25:12;;;;;;;;;;;6.10;46.80;;;;;;5101987;28;20108;-79
2022/03/11 10:27:56;;;;;;;;;;;6.10;46.70;;;;;;5083125;28;19999;-79
2022/03/11 10:30:22;;;;;;;;;;;6.40;49.50;;;;;;5101488;28;20256;-79
2022/03/11 10:32:49;;;;;;;;;;;6.40;45.20;;;;;;5101984;28;20022;-79
2022/03/11 10:35:18;;;;;;;;;;;6.20;43.00;;;;;;5101073;28;19924;-79
2022/03/11 10:37:57;;;;;;;;;;;6.00;43.60;;;;;;5084243;28;19911;-79
2022/03/11 10:40:22;;;;;;;;;;;5.50;41.60;;;;;;5086566;28;20226;-79
2022/03/11 10:42:48;;;;;;;;;;;4.90;41.40;;;;;;5109844;28;19951;-79
2022/03/11 10:45:14;;;;;;;;;;;4.50;42.90;;;;;;5108732;28;19908;-79
2022/03/11 10:47:40;;;;;;;;;;;4.20;43.20;;;;;;5103462;28;19919;-78
2022/03/11 10:50:09;;;;;;;;;;;4.20;43.40;;;;;;5106993;28;19915;-79
2022/03/11 10:52:34;;;;;;;;;;;4.20;43.80;;;;;;5109065;28;19994;-79
2022/03/11 10:55:01;;;;;;;;;;;5.90;44.80;;;;;;5107564;28;19951;-79
2022/03/11 10:57:36;;;;;;;;;;;4.30;44.10;;;;;;5092529;28;20196;-80
2022/03/11 11:00:32;;;;;;;;;;;4.10;42.40;;;;;;5105961;28;20401;-79
2022/03/11 11:02:58;;;;;;;;;;;4.20;43.20;;;;;;4999208;28;20204;-79
2022/03/11 11:05:24;;;;;;;;;;;4.40;43.30;;;;;;4999391;28;19922;-79
2022/03/11 11:07:53;;;;;;;;;;;4.60;42.50;;;;;;4981037;28;19913;-79
2022/03/11 11:10:20;;;;;;;;;;;4.80;41.00;;;;;;4980938;28;20427;-78
2022/03/11 11:12:46;;;;;;;;;;;6.40;41.50;;;;;;4997817;28;19917;-79
2022/03/11 11:15:12;;;;;;;;;;;5.50;41.50;;;;;;4997454;28;19987;-78
2022/03/11 11:17:39;;;;;;;;;;;5.80;41.20;;;;;;4998013;28;20004;-79
2022/03/11 11:20:12;;;;;;;;;;;5.00;40.50;;;;;;4997706;28;19909;-78
2022/03/11 11:22:40;;;;;;;;;;;6.10;40.00;;;;;;4997969;28;19913;-78
2022/03/11 11:25:06;;;;;;;;;;;6.00;39.80;;;;;;4997568;28;19910;-79
2022/03/11 11:27:32;;;;;;;;;;;6.00;38.90;;;;;;4997448;28;19916;-79
2022/03/11 11:29:58;;;;;;;;;;;5.90;40.80;;;;;;4996881;28;19977;-79
2022/03/11 11:32:24;;;;;;;;;;;5.90;39.80;;;;;;4981092;28;19910;-79
2022/03/11 11:34:49;;;;;;;;;;;6.00;38.60;;;;;;4998278;28;19972;-78
2022/03/11 11:37:34;;;;;;;;;;;6.30;38.80;;;;;;4999416;28;20020;-80
2022/03/11 11:39:59;;;;;;;;;;;6.30;39.00;;;;;;5075648;28;19947;-79
2022/03/11 11:42:28;;;;;;;;;;;6.30;38.30;;;;;;5082961;28;20222;-79
2022/03/11 11:44:53;;;;;;;;;;;6.50;41.20;;;;;;5101356;28;19907;-78
2022/03/11 11:47:22;;;;;;;;;;;5.80;37.60;;;;;;5100262;28;20384;-79
2022/03/11 11:49:50;;;;;;;;;;;5.90;38.20;;;;;;5101815;28;19908;-78
2022/03/11 11:52:36;;;;;;;;;;;5.80;38.20;;;;;;5100637;28;19908;-79
2022/03/11 11:55:13;;;;;;;;;;;5.10;39.00;;;;;;5080943;28;20131;-78
2022/03/11 11:57:38;;;;;;;;;;;4.80;39.30;;;;;;5099638;28;20191;-79
2022/03/11 12:00:05;;;;;;;;;;;6.60;41.20;;;;;;5100206;28;19990;-78
2022/03/11 12:02:33;;;;;;;;;;;5.20;40.00;;;;;;5100784;28;19908;-78
2022/03/11 12:05:22;;;;;;;;;;;5.50;40.30;;;;;;5100028;28;19955;-79
2022/03/11 12:07:48;;;;;;;;;;;6.00;40.00;;;;;;5099304;28;19912;-79
2022/03/11 12:10:31;;;;;;;;;;;6.40;40.30;;;;;;5099556;28;19943;-79
2022/03/11 12:12:59;;;;;;;;;;;6.80;43.30;;;;;;5098664;28;19908;-79
2022/03/11 12:15:25;;;;;;;;;;;6.80;38.90;;;;;;5099962;28;19920;-78
2022/03/11 12:17:56;;;;;;;;;;;6.80;38.50;;;;;;5083739;28;19914;-79
2022/03/11 12:20:34;;;;;;;;;;;6.20;39.30;;;;;;5082432;28;19908;-78
2022/03/11 12:23:00;;;;;;;;;;;5.70;39.80;;;;;;5082207;28;19915;-79
2022/03/11 12:25:30;;;;;;;;;;;5.10;39.50;;;;;;5100794;28;19912;-79
2022/03/11 12:27:59;;;;;;;;;;;4.90;40.40;;;;;;5100531;28;19918;-79
2022/03/11 12:30:25;;;;;;;;;;;4.80;41.40;;;;;;5100683;28;20132;-79
2022/03/11 12:32:51;;;;;;;;;;;4.80;43.00;;;;;;5082479;28;19908;-79
2022/03/11 12:35:17;;;;;;;;;;;4.80;42.70;;;;;;5100641;28;19944;-79
2022/03/11 12:37:43;;;;;;;;;;;5.10;41.50;;;;;;5101650;28;20220;-79
2022/03/11 12:40:09;;;;;;;;;;;5.40;41.40;;;;;;5101634;28;19912;-79
2022/03/11 12:42:38;;;;;;;;;;;5.50;40.40;;;;;;5101459;28;19941;-78
2022/03/11 12:45:04;;;;;;;;;;;5.60;40.90;;;;;;5101768;28;20123;-79
2022/03/11 12:47:36;;;;;;;;;;;5.60;40.20;;;;;;5080295;28;19920;-79
2022/03/11 12:50:04;;;;;;;;;;;5.60;40.50;;;;;;5082974;28;19947;-78
2022/03/11 12:52:39;;;;;;;;;;;4.20;41.20;;;;;;5082046;28;19934;-79
2022/03/11 12:55:30;;;;;;;;;;;6.40;41.70;;;;;;5087130;28;20185;-80
2022/03/11 12:57:56;;;;;;;;;;;6.30;39.40;;;;;;5082280;28;19966;-79
2022/03/11 13:00:23;;;;;;;;;;;6.20;40.20;;;;;;5082456;28;19908;-79
2022/03/11 13:02:49;;;;;;;;;;;6.20;40.80;;;;;;5081293;28;19912;-79
2022/03/11 13:05:22;;;;;;;;;;;6.10;40.70;;;;;;5080336;28;20166;-78
2022/03/11 13:07:48;;;;;;;;;;;6.00;39.60;;;;;;5083911;28;20044;-79
2022/03/11 13:10:15;;;;;;;;;;;5.80;40.30;;;;;;5083374;28;20158;-80
2022/03/11 13:12:40;;;;;;;;;;;5.80;40.10;;;;;;5084482;28;19944;-79
2022/03/11 13:15:15;;;;;;;;;;;5.90;39.80;;;;;;5082511;28;19969;-79
2022/03/11 13:17:42;;;;;;;;;;;6.10;39.70;;;;;;5082749;28;20061;-79
2022/03/11 13:20:08;;;;;;;;;;;6.30;39.00;;;;;;5085309;28;19908;-79
2022/03/11 13:22:33;;;;;;;;;;;6.50;38.80;;;;;;5084632;28;20052;-79
2022/03/11 13:25:03;;;;;;;;;;;6.90;38.90;;;;;;5088724;28;19936;-78
2022/03/11 13:27:35;;;;;;;;;;;7.30;39.40;;;;;;5091021;28;20341;-79
2022/03/11 13:30:05;;;;;;;;;;;7.60;40.10;;;;;;5091429;28;19916;-79
2022/03/11 13:32:30;;;;;;;;;;;7.60;38.40;;;;;;5091427;28;20007;-79
2022/03/11 13:34:56;;;;;;;;;;;7.70;39.40;;;;;;5094979;28;19952;-80
2022/03/11 13:37:22;;;;;;;;;;;8.20;39.90;;;;;;5095254;28;20011;-80
2022/03/11 13:40:05;;;;;;;;;;;8.60;38.90;;;;;;5088598;28;19912;-79
2022/03/11 13:42:31;;;;;;;;;;;8.90;37.30;;;;;;5069452;28;20044;-79
2022/03/11 13:45:03;;;;;;;;;;;9.50;39.60;;;;;;5088295;28;19970;-79
2022/03/11 13:47:30;;;;;;;;;;;9.80;37.30;;;;;;5025244;28;2287500;-79
2022/03/11 13:50:04;;;;;;;;;;;10.30;35.80;;;;;;5110725;28;19933;-79
2022/03/11 13:52:38;;;;;;;;;;;10.50;36.40;;;;;;5112288;28;19908;-79
2022/03/11 13:55:08;;;;;;;;;;;10.50;35.30;;;;;;5092257;28;19923;-79
2022/03/11 13:57:34;;;;;;;;;;;10.20;35.70;;;;;;5111674;28;19907;-80
2022/03/11 14:00:16;;;;;;;;;;;10.10;35.40;;;;;;5093319;28;19908;-79
2022/03/11 14:02:42;;;;;;;;;;;10.30;35.80;;;;;;5113308;28;19915;-79
2022/03/11 14:05:13;;;;;;;;;;;10.40;34.80;;;;;;5114166;28;20545;-79
2022/03/11 14:07:39;;;;;;;;;;;10.40;35.90;;;;;;5112087;28;19915;-79
2022/03/11 14:10:12;;;;;;;;;;;10.40;36.40;;;;;;5111177;28;19972;-79
2022/03/11 14:12:37;;;;;;;;;;;11.20;35.20;;;;;;5089382;28;19912;-79
2022/03/11 14:15:05;;;;;;;;;;;10.40;34.50;;;;;;5088684;28;20257;-79
2022/03/11 14:17:31;;;;;;;;;;;10.00;34.50;;;;;;5106268;28;19907;-79